Terminal Aerodrome Forecast
Issued by NWS Wilmington, OH

Current Version | Previous Version | Graphics & Text | Print | Product List | Glossary On
Versions: 1 2 3 4 5 6 7 8 9 10 11 12 13 14 15 16 17 18 19 20 21 22 23 24
897
FTUS41 KILN 200648 AAB
TAFDAY
TAF AMD
KDAY 200648Z 2007/2106 VRB03KT 2SM BR SCT005
      TEMPO 2007/2009 1/4SM FG VV005
     FM200900 00000KT 1/4SM FG VV005
     FM201300 VRB03KT 1SM BR BKN015
     FM201500 14004KT P6SM SCT015
     FM201800 14007KT P6SM SCT200
     FM210200 15007KT P6SM BKN250=

USA.gov is the U.S. government's official web portal to all federal, state and local government web resources and services.